sensor_id;sensor_type;location;lat;lon;timestamp;noise_LAeq;noise_LA_min;noise_LA_max;noise_LA01;noise_LA95
45964;Laerm;31671;48.092;11.842;2022-12-20T00:00:10;29.02;27.56;30.23;;
45964;Laerm;31671;48.092;11.842;2022-12-20T00:02:36;29.11;27.72;30.97;;
45964;Laerm;31671;48.092;11.842;2022-12-20T00:05:02;29.04;27.76;30.24;;
45964;Laerm;31671;48.092;11.842;2022-12-20T00:07:28;29.05;27.80;30.24;;
45964;Laerm;31671;48.092;11.842;2022-12-20T00:09:53;29.00;27.54;30.20;;
45964;Laerm;31671;48.092;11.842;2022-12-20T00:12:19;29.01;27.61;30.14;;
45964;Laerm;31671;48.092;11.842;2022-12-20T00:14:45;29.06;27.82;30.66;;
45964;Laerm;31671;48.092;11.842;2022-12-20T00:17:11;29.11;27.72;31.07;;
45964;Laerm;31671;48.092;11.842;2022-12-20T00:19:36;28.99;27.65;30.20;;
45964;Laerm;31671;48.092;11.842;2022-12-20T00:22:02;29.03;27.67;30.27;;
45964;Laerm;31671;48.092;11.842;2022-12-20T00:24:28;29.00;27.73;30.12;;
45964;Laerm;31671;48.092;11.842;2022-12-20T00:26:53;28.97;27.70;33.49;;
45964;Laerm;31671;48.092;11.842;2022-12-20T00:29:19;29.04;27.60;39.16;;
45964;Laerm;31671;48.092;11.842;2022-12-20T00:31:45;28.80;27.40;30.00;;
45964;Laerm;31671;48.092;11.842;2022-12-20T00:34:10;28.91;27.24;30.97;;
45964;Laerm;31671;48.092;11.842;2022-12-20T00:36:36;28.94;27.66;30.18;;
45964;Laerm;31671;48.092;11.842;2022-12-20T00:39:03;29.49;27.54;33.67;;
45964;Laerm;31671;48.092;11.842;2022-12-20T00:41:30;28.88;27.44;31.14;;
45964;Laerm;31671;48.092;11.842;2022-12-20T00:43:56;29.03;27.89;30.98;;
45964;Laerm;31671;48.092;11.842;2022-12-20T00:46:22;28.93;27.63;30.10;;
45964;Laerm;31671;48.092;11.842;2022-12-20T00:48:48;29.01;27.71;30.39;;
45964;Laerm;31671;48.092;11.842;2022-12-20T00:51:15;29.94;27.76;38.31;;
45964;Laerm;31671;48.092;11.842;2022-12-20T00:53:41;29.00;27.54;30.39;;
45964;Laerm;31671;48.092;11.842;2022-12-20T00:56:07;29.02;27.56;30.14;;
45964;Laerm;31671;48.092;11.842;2022-12-20T00:58:34;29.19;27.28;32.88;;
45964;Laerm;31671;48.092;11.842;2022-12-20T01:01:00;29.52;27.77;34.91;;
45964;Laerm;31671;48.092;11.842;2022-12-20T01:03:26;29.00;27.48;30.34;;
45964;Laerm;31671;48.092;11.842;2022-12-20T01:05:56;29.05;27.72;30.24;;
45964;Laerm;31671;48.092;11.842;2022-12-20T01:08:22;29.31;27.77;31.84;;
45964;Laerm;31671;48.092;11.842;2022-12-20T01:11:03;29.20;27.42;31.77;;
45964;Laerm;31671;48.092;11.842;2022-12-20T01:13:29;28.99;27.61;33.12;;
45964;Laerm;31671;48.092;11.842;2022-12-20T01:15:55;29.09;27.74;31.86;;
45964;Laerm;31671;48.092;11.842;2022-12-20T01:18:21;29.09;27.72;30.50;;
45964;Laerm;31671;48.092;11.842;2022-12-20T01:20:47;29.14;27.70;33.20;;
45964;Laerm;31671;48.092;11.842;2022-12-20T01:23:13;29.09;27.74;33.73;;
45964;Laerm;31671;48.092;11.842;2022-12-20T01:25:39;29.80;27.57;34.58;;
45964;Laerm;31671;48.092;11.842;2022-12-20T01:28:04;29.18;27.91;30.37;;
45964;Laerm;31671;48.092;11.842;2022-12-20T01:30:30;29.44;27.86;42.01;;
45964;Laerm;31671;48.092;11.842;2022-12-20T01:32:56;29.53;27.99;32.42;;
45964;Laerm;31671;48.092;11.842;2022-12-20T01:35:21;29.20;27.86;30.34;;
45964;Laerm;31671;48.092;11.842;2022-12-20T01:37:47;30.79;27.50;51.01;;
45964;Laerm;31671;48.092;11.842;2022-12-20T01:40:13;29.57;27.89;44.63;;
45964;Laerm;31671;48.092;11.842;2022-12-20T01:42:38;29.35;27.90;32.22;;
45964;Laerm;31671;48.092;11.842;2022-12-20T01:45:06;29.20;27.78;33.24;;
45964;Laerm;31671;48.092;11.842;2022-12-20T01:47:33;29.31;27.99;39.30;;
45964;Laerm;31671;48.092;11.842;2022-12-20T01:50:01;29.45;27.78;32.45;;
45964;Laerm;31671;48.092;11.842;2022-12-20T01:52:32;29.20;27.68;30.62;;
45964;Laerm;31671;48.092;11.842;2022-12-20T02:00:06;29.17;27.95;31.00;;
45964;Laerm;31671;48.092;11.842;2022-12-20T02:02:39;29.71;28.12;36.79;;
45964;Laerm;31671;48.092;11.842;2022-12-20T02:05:06;29.24;28.01;30.53;;
45964;Laerm;31671;48.092;11.842;2022-12-20T02:07:32;29.79;27.91;45.39;;
45964;Laerm;31671;48.092;11.842;2022-12-20T02:09:59;29.16;27.79;31.86;;
45964;Laerm;31671;48.092;11.842;2022-12-20T02:12:27;29.14;27.80;32.45;;
45964;Laerm;31671;48.092;11.842;2022-12-20T02:15:06;29.18;27.90;34.68;;
45964;Laerm;31671;48.092;11.842;2022-12-20T02:20:04;29.41;27.63;40.90;;
45964;Laerm;31671;48.092;11.842;2022-12-20T02:22:50;29.16;27.68;30.55;;
45964;Laerm;31671;48.092;11.842;2022-12-20T02:30:21;29.19;27.82;30.49;;
45964;Laerm;31671;48.092;11.842;2022-12-20T02:33:07;29.14;27.60;30.45;;
45964;Laerm;31671;48.092;11.842;2022-12-20T02:35:35;29.17;27.89;30.38;;
45964;Laerm;31671;48.092;11.842;2022-12-20T02:38:47;29.26;27.80;30.73;;
45964;Laerm;31671;48.092;11.842;2022-12-20T02:40:48;29.23;28.00;30.60;;
45964;Laerm;31671;48.092;11.842;2022-12-20T02:43:16;29.48;27.94;31.69;;
45964;Laerm;31671;48.092;11.842;2022-12-20T02:45:42;29.20;27.88;30.44;;
45964;Laerm;31671;48.092;11.842;2022-12-20T02:48:09;29.22;27.95;30.59;;
45964;Laerm;31671;48.092;11.842;2022-12-20T02:50:41;29.18;27.86;30.38;;
45964;Laerm;31671;48.092;11.842;2022-12-20T02:53:09;29.15;27.63;30.48;;
45964;Laerm;31671;48.092;11.842;2022-12-20T02:55:40;29.09;27.77;30.29;;
45964;Laerm;31671;48.092;11.842;2022-12-20T02:58:09;29.25;27.81;30.61;;
45964;Laerm;31671;48.092;11.842;2022-12-20T03:00:39;29.29;27.90;31.03;;
45964;Laerm;31671;48.092;11.842;2022-12-20T03:03:08;29.23;27.93;32.63;;
45964;Laerm;31671;48.092;11.842;2022-12-20T03:05:35;29.17;27.83;33.33;;
45964;Laerm;31671;48.092;11.842;2022-12-20T03:08:02;29.19;27.93;30.53;;
45964;Laerm;31671;48.092;11.842;2022-12-20T03:10:27;29.13;27.70;30.41;;
45964;Laerm;31671;48.092;11.842;2022-12-20T03:12:53;29.09;27.74;30.46;;
45964;Laerm;31671;48.092;11.842;2022-12-20T03:15:19;29.13;27.85;37.30;;
45964;Laerm;31671;48.092;11.842;2022-12-20T03:17:46;29.02;27.56;30.11;;
45964;Laerm;31671;48.092;11.842;2022-12-20T03:20:12;29.90;27.77;36.27;;
45964;Laerm;31671;48.092;11.842;2022-12-20T03:22:37;29.33;27.74;31.16;;
45964;Laerm;31671;48.092;11.842;2022-12-20T03:25:03;29.10;27.79;30.26;;
45964;Laerm;31671;48.092;11.842;2022-12-20T03:27:30;29.09;27.81;30.54;;
45964;Laerm;31671;48.092;11.842;2022-12-20T03:29:57;29.54;27.94;33.57;;
45964;Laerm;31671;48.092;11.842;2022-12-20T03:32:23;29.15;27.80;32.14;;
45964;Laerm;31671;48.092;11.842;2022-12-20T03:34:48;29.15;27.81;30.38;;
45964;Laerm;31671;48.092;11.842;2022-12-20T03:37:19;29.01;27.62;30.38;;
45964;Laerm;31671;48.092;11.842;2022-12-20T03:39:45;29.07;27.71;30.34;;
45964;Laerm;31671;48.092;11.842;2022-12-20T03:42:10;29.10;27.81;30.89;;
45964;Laerm;31671;48.092;11.842;2022-12-20T03:44:36;29.19;27.64;33.10;;
45964;Laerm;31671;48.092;11.842;2022-12-20T03:47:02;29.07;27.65;32.61;;
45964;Laerm;31671;48.092;11.842;2022-12-20T03:49:28;29.03;27.78;33.24;;
45964;Laerm;31671;48.092;11.842;2022-12-20T03:51:54;28.94;27.80;30.38;;
45964;Laerm;31671;48.092;11.842;2022-12-20T03:54:21;28.99;27.62;30.33;;
45964;Laerm;31671;48.092;11.842;2022-12-20T03:57:00;29.05;27.44;30.35;;
45964;Laerm;31671;48.092;11.842;2022-12-20T03:59:26;29.03;27.63;31.68;;
45964;Laerm;31671;48.092;11.842;2022-12-20T04:01:51;29.59;27.85;33.21;;
45964;Laerm;31671;48.092;11.842;2022-12-20T04:04:17;29.02;27.63;33.52;;
45964;Laerm;31671;48.092;11.842;2022-12-20T04:06:43;29.49;27.86;46.80;;
45964;Laerm;31671;48.092;11.842;2022-12-20T04:09:09;29.14;27.82;38.41;;
45964;Laerm;31671;48.092;11.842;2022-12-20T04:11:41;29.14;27.58;41.82;;
45964;Laerm;31671;48.092;11.842;2022-12-20T04:14:11;29.13;27.73;33.58;;
45964;Laerm;31671;48.092;11.842;2022-12-20T04:16:36;29.26;28.09;30.34;;
45964;Laerm;31671;48.092;11.842;2022-12-20T04:19:03;29.17;27.89;37.19;;
45964;Laerm;31671;48.092;11.842;2022-12-20T04:21:34;29.36;28.06;30.95;;
45964;Laerm;31671;48.092;11.842;2022-12-20T04:24:00;29.31;27.94;31.45;;
45964;Laerm;31671;48.092;11.842;2022-12-20T04:26:38;29.12;27.78;31.13;;
45964;Laerm;31671;48.092;11.842;2022-12-20T04:29:03;29.28;27.96;30.52;;
45964;Laerm;31671;48.092;11.842;2022-12-20T04:31:30;29.51;27.75;31.96;;
45964;Laerm;31671;48.092;11.842;2022-12-20T04:33:55;29.13;27.63;30.38;;
45964;Laerm;31671;48.092;11.842;2022-12-20T04:36:21;29.28;28.00;39.86;;
45964;Laerm;31671;48.092;11.842;2022-12-20T04:38:49;29.30;27.99;37.17;;
45964;Laerm;31671;48.092;11.842;2022-12-20T04:41:15;29.54;27.83;32.25;;
45964;Laerm;31671;48.092;11.842;2022-12-20T04:43:44;29.31;27.95;31.76;;
45964;Laerm;31671;48.092;11.842;2022-12-20T04:46:10;29.28;27.83;30.82;;
45964;Laerm;31671;48.092;11.842;2022-12-20T04:48:36;29.09;27.53;30.39;;
45964;Laerm;31671;48.092;11.842;2022-12-20T04:51:02;29.10;27.72;31.10;;
45964;Laerm;31671;48.092;11.842;2022-12-20T04:53:27;29.18;27.77;30.71;;
45964;Laerm;31671;48.092;11.842;2022-12-20T04:55:53;29.16;27.57;30.71;;
45964;Laerm;31671;48.092;11.842;2022-12-20T04:58:19;29.38;27.75;33.51;;
45964;Laerm;31671;48.092;11.842;2022-12-20T05:00:45;29.14;27.80;30.36;;
45964;Laerm;31671;48.092;11.842;2022-12-20T05:03:25;29.30;27.91;38.74;;
45964;Laerm;31671;48.092;11.842;2022-12-20T05:05:51;29.25;27.82;35.92;;
45964;Laerm;31671;48.092;11.842;2022-12-20T05:08:17;29.24;27.56;31.32;;
45964;Laerm;31671;48.092;11.842;2022-12-20T05:10:44;29.30;28.04;30.72;;
45964;Laerm;31671;48.092;11.842;2022-12-20T05:13:09;29.33;27.74;32.72;;
45964;Laerm;31671;48.092;11.842;2022-12-20T05:15:42;29.66;27.73;46.19;;
45964;Laerm;31671;48.092;11.842;2022-12-20T05:18:07;29.47;28.08;32.81;;
45964;Laerm;31671;48.092;11.842;2022-12-20T05:20:55;29.50;27.94;34.92;;
45964;Laerm;31671;48.092;11.842;2022-12-20T05:23:21;29.43;28.01;32.56;;
45964;Laerm;31671;48.092;11.842;2022-12-20T05:25:50;29.97;28.19;38.65;;
45964;Laerm;31671;48.092;11.842;2022-12-20T05:28:17;30.25;28.10;45.85;;
45964;Laerm;31671;48.092;11.842;2022-12-20T05:30:43;29.48;27.93;31.53;;
45964;Laerm;31671;48.092;11.842;2022-12-20T05:33:09;29.73;28.04;44.81;;
45964;Laerm;31671;48.092;11.842;2022-12-20T05:35:34;29.37;27.78;30.80;;
45964;Laerm;31671;48.092;11.842;2022-12-20T05:38:05;29.79;28.20;33.22;;
45964;Laerm;31671;48.092;11.842;2022-12-20T05:40:31;29.60;27.91;36.46;;
45964;Laerm;31671;48.092;11.842;2022-12-20T05:42:57;29.61;27.95;31.64;;
45964;Laerm;31671;48.092;11.842;2022-12-20T05:45:31;29.60;28.15;31.44;;
45964;Laerm;31671;48.092;11.842;2022-12-20T05:48:02;29.78;28.12;39.18;;
45964;Laerm;31671;48.092;11.842;2022-12-20T05:50:29;29.51;28.02;34.03;;
45964;Laerm;31671;48.092;11.842;2022-12-20T05:53:21;29.56;28.26;31.30;;
45964;Laerm;31671;48.092;11.842;2022-12-20T05:55:51;29.56;27.93;34.83;;
45964;Laerm;31671;48.092;11.842;2022-12-20T05:58:18;29.65;28.07;33.50;;
45964;Laerm;31671;48.092;11.842;2022-12-20T06:00:52;29.46;28.01;33.31;;
45964;Laerm;31671;48.092;11.842;2022-12-20T06:03:18;29.66;28.21;31.34;;
45964;Laerm;31671;48.092;11.842;2022-12-20T06:05:44;29.51;27.91;31.14;;
45964;Laerm;31671;48.092;11.842;2022-12-20T06:08:13;29.58;28.03;31.48;;
45964;Laerm;31671;48.092;11.842;2022-12-20T06:10:39;30.22;28.33;34.08;;
45964;Laerm;31671;48.092;11.842;2022-12-20T06:13:06;29.76;28.31;33.66;;
45964;Laerm;31671;48.092;11.842;2022-12-20T06:15:32;29.70;27.95;40.11;;
45964;Laerm;31671;48.092;11.842;2022-12-20T06:17:59;30.84;28.19;46.00;;
45964;Laerm;31671;48.092;11.842;2022-12-20T06:20:25;31.67;28.00;49.04;;
45964;Laerm;31671;48.092;11.842;2022-12-20T06:22:51;30.78;27.77;48.05;;
45964;Laerm;31671;48.092;11.842;2022-12-20T06:25:17;30.25;28.07;42.75;;
45964;Laerm;31671;48.092;11.842;2022-12-20T06:27:42;29.78;28.28;38.76;;
45964;Laerm;31671;48.092;11.842;2022-12-20T06:30:14;31.65;28.26;52.19;;
45964;Laerm;31671;48.092;11.842;2022-12-20T06:33:00;29.97;27.95;37.87;;
45964;Laerm;31671;48.092;11.842;2022-12-20T06:35:25;30.04;28.11;42.36;;
45964;Laerm;31671;48.092;11.842;2022-12-20T06:37:54;30.29;28.26;43.18;;
45964;Laerm;31671;48.092;11.842;2022-12-20T06:40:20;32.20;28.49;55.53;;
45964;Laerm;31671;48.092;11.842;2022-12-20T06:42:45;30.39;28.33;47.04;;
45964;Laerm;31671;48.092;11.842;2022-12-20T06:45:11;33.66;28.30;52.59;;
45964;Laerm;31671;48.092;11.842;2022-12-20T06:47:37;30.38;28.34;44.34;;
45964;Laerm;31671;48.092;11.842;2022-12-20T06:50:03;29.88;28.25;40.57;;
45964;Laerm;31671;48.092;11.842;2022-12-20T06:52:29;30.37;28.28;43.68;;
45964;Laerm;31671;48.092;11.842;2022-12-20T06:54:55;30.13;28.26;40.05;;
45964;Laerm;31671;48.092;11.842;2022-12-20T06:57:21;30.59;28.15;44.74;;
45964;Laerm;31671;48.092;11.842;2022-12-20T06:59:47;29.95;28.38;35.39;;
45964;Laerm;31671;48.092;11.842;2022-12-20T07:02:13;29.76;28.21;38.34;;
45964;Laerm;31671;48.092;11.842;2022-12-20T07:04:39;30.16;28.21;43.98;;
45964;Laerm;31671;48.092;11.842;2022-12-20T07:07:05;29.80;28.27;35.71;;
45964;Laerm;31671;48.092;11.842;2022-12-20T07:09:31;31.03;28.18;46.71;;
45964;Laerm;31671;48.092;11.842;2022-12-20T07:11:56;30.16;28.24;39.56;;
45964;Laerm;31671;48.092;11.842;2022-12-20T07:14:22;30.33;28.33;45.64;;
45964;Laerm;31671;48.092;11.842;2022-12-20T07:16:48;29.90;28.35;38.24;;
45964;Laerm;31671;48.092;11.842;2022-12-20T07:19:14;32.95;28.33;52.91;;
45964;Laerm;31671;48.092;11.842;2022-12-20T07:21:39;35.55;28.83;51.81;;
45964;Laerm;31671;48.092;11.842;2022-12-20T07:24:05;37.96;28.71;58.29;;
45964;Laerm;31671;48.092;11.842;2022-12-20T07:26:31;35.92;28.78;54.26;;
45964;Laerm;31671;48.092;11.842;2022-12-20T07:28:57;39.55;28.58;55.70;;
45964;Laerm;31671;48.092;11.842;2022-12-20T07:31:22;38.13;28.65;59.98;;
45964;Laerm;31671;48.092;11.842;2022-12-20T07:33:48;32.29;28.65;48.69;;
45964;Laerm;31671;48.092;11.842;2022-12-20T07:36:14;33.07;28.81;50.52;;
45964;Laerm;31671;48.092;11.842;2022-12-20T07:38:40;38.78;28.45;60.81;;
45964;Laerm;31671;48.092;11.842;2022-12-20T07:41:10;31.52;28.81;44.83;;
45964;Laerm;31671;48.092;11.842;2022-12-20T07:43:36;30.75;28.46;45.97;;
45964;Laerm;31671;48.092;11.842;2022-12-20T07:46:02;30.09;28.60;33.16;;
45964;Laerm;31671;48.092;11.842;2022-12-20T07:48:28;30.55;28.77;41.71;;
45964;Laerm;31671;48.092;11.842;2022-12-20T07:50:55;30.33;28.59;41.17;;
45964;Laerm;31671;48.092;11.842;2022-12-20T07:53:22;30.05;28.72;33.72;;
45964;Laerm;31671;48.092;11.842;2022-12-20T07:55:49;29.87;28.44;31.91;;
45964;Laerm;31671;48.092;11.842;2022-12-20T07:58:15;30.07;28.66;36.97;;
45964;Laerm;31671;48.092;11.842;2022-12-20T08:00:41;30.09;28.56;33.70;;
45964;Laerm;31671;48.092;11.842;2022-12-20T08:03:17;29.95;28.64;32.77;;
45964;Laerm;31671;48.092;11.842;2022-12-20T08:05:45;30.07;28.52;34.97;;
45964;Laerm;31671;48.092;11.842;2022-12-20T08:08:11;29.93;28.55;32.05;;
45964;Laerm;31671;48.092;11.842;2022-12-20T08:10:37;30.03;28.52;32.49;;
45964;Laerm;31671;48.092;11.842;2022-12-20T08:13:04;30.77;28.75;37.59;;
45964;Laerm;31671;48.092;11.842;2022-12-20T08:15:30;29.90;28.46;36.64;;
45964;Laerm;31671;48.092;11.842;2022-12-20T08:17:58;30.10;28.51;34.79;;
45964;Laerm;31671;48.092;11.842;2022-12-20T08:20:24;30.21;28.56;37.53;;
45964;Laerm;31671;48.092;11.842;2022-12-20T08:22:49;30.00;28.25;37.39;;
45964;Laerm;31671;48.092;11.842;2022-12-20T08:25:15;30.76;28.18;39.62;;
45964;Laerm;31671;48.092;11.842;2022-12-20T08:27:41;30.46;28.62;34.74;;
45964;Laerm;31671;48.092;11.842;2022-12-20T08:30:06;29.88;28.43;36.68;;
45964;Laerm;31671;48.092;11.842;2022-12-20T08:32:32;30.28;28.63;38.57;;
45964;Laerm;31671;48.092;11.842;2022-12-20T08:34:58;31.46;28.43;48.06;;
45964;Laerm;31671;48.092;11.842;2022-12-20T08:37:24;30.42;28.58;42.75;;
45964;Laerm;31671;48.092;11.842;2022-12-20T08:39:50;30.61;28.62;39.37;;
45964;Laerm;31671;48.092;11.842;2022-12-20T08:42:15;30.44;28.64;41.99;;
45964;Laerm;31671;48.092;11.842;2022-12-20T08:44:41;31.37;28.55;46.92;;
45964;Laerm;31671;48.092;11.842;2022-12-20T08:47:07;31.81;28.41;46.97;;
45964;Laerm;31671;48.092;11.842;2022-12-20T08:49:32;34.60;28.79;54.51;;
45964;Laerm;31671;48.092;11.842;2022-12-20T08:51:58;32.49;28.80;51.91;;
45964;Laerm;31671;48.092;11.842;2022-12-20T08:54:24;30.03;28.62;38.78;;
45964;Laerm;31671;48.092;11.842;2022-12-20T08:56:49;30.26;28.68;39.15;;
45964;Laerm;31671;48.092;11.842;2022-12-20T08:59:15;30.03;28.64;35.65;;
45964;Laerm;31671;48.092;11.842;2022-12-20T09:01:41;30.08;28.60;32.08;;
45964;Laerm;31671;48.092;11.842;2022-12-20T09:04:08;30.55;28.61;35.05;;
45964;Laerm;31671;48.092;11.842;2022-12-20T09:06:34;30.24;28.76;33.32;;
45964;Laerm;31671;48.092;11.842;2022-12-20T09:09:00;30.03;28.37;31.89;;
45964;Laerm;31671;48.092;11.842;2022-12-20T09:11:26;30.01;28.65;32.50;;
45964;Laerm;31671;48.092;11.842;2022-12-20T09:13:52;30.10;28.65;32.33;;
45964;Laerm;31671;48.092;11.842;2022-12-20T09:16:20;30.09;28.73;31.55;;
45964;Laerm;31671;48.092;11.842;2022-12-20T09:18:52;30.15;28.73;32.24;;
45964;Laerm;31671;48.092;11.842;2022-12-20T09:21:19;30.65;28.81;39.37;;
45964;Laerm;31671;48.092;11.842;2022-12-20T09:23:45;30.89;28.70;38.15;;
45964;Laerm;31671;48.092;11.842;2022-12-20T09:26:11;30.94;28.95;38.62;;
45964;Laerm;31671;48.092;11.842;2022-12-20T09:28:37;30.61;28.83;43.07;;
45964;Laerm;31671;48.092;11.842;2022-12-20T09:31:04;30.16;28.49;32.43;;
45964;Laerm;31671;48.092;11.842;2022-12-20T09:33:31;30.30;28.99;36.07;;
45964;Laerm;31671;48.092;11.842;2022-12-20T09:35:57;30.57;28.99;34.36;;
45964;Laerm;31671;48.092;11.842;2022-12-20T09:38:23;30.38;28.90;42.86;;
45964;Laerm;31671;48.092;11.842;2022-12-20T09:40:49;30.29;28.94;32.26;;
45964;Laerm;31671;48.092;11.842;2022-12-20T09:43:16;30.33;28.90;35.78;;
45964;Laerm;31671;48.092;11.842;2022-12-20T09:45:42;30.60;28.74;33.36;;
45964;Laerm;31671;48.092;11.842;2022-12-20T09:48:15;30.65;29.03;34.50;;
45964;Laerm;31671;48.092;11.842;2022-12-20T09:51:04;30.49;28.92;35.87;;
45964;Laerm;31671;48.092;11.842;2022-12-20T09:56:12;31.37;29.11;37.22;;
45964;Laerm;31671;48.092;11.842;2022-12-20T10:01:21;30.27;28.91;32.69;;
45964;Laerm;31671;48.092;11.842;2022-12-20T10:03:47;30.44;28.84;35.28;;
45964;Laerm;31671;48.092;11.842;2022-12-20T10:06:32;30.71;28.96;50.17;;
45964;Laerm;31671;48.092;11.842;2022-12-20T10:09:03;31.12;28.99;49.76;;
45964;Laerm;31671;48.092;11.842;2022-12-20T10:11:44;30.58;28.84;36.61;;
45964;Laerm;31671;48.092;11.842;2022-12-20T10:14:31;30.23;28.89;35.02;;
45964;Laerm;31671;48.092;11.842;2022-12-20T10:22:24;30.53;28.83;41.92;;
45964;Laerm;31671;48.092;11.842;2022-12-20T10:25:01;30.51;28.50;37.44;;
45964;Laerm;31671;48.092;11.842;2022-12-20T10:27:27;30.78;28.77;35.37;;
45964;Laerm;31671;48.092;11.842;2022-12-20T10:29:53;30.92;29.23;33.88;;
45964;Laerm;31671;48.092;11.842;2022-12-20T10:32:20;30.29;28.85;33.71;;
45964;Laerm;31671;48.092;11.842;2022-12-20T10:34:51;30.66;29.04;33.65;;
45964;Laerm;31671;48.092;11.842;2022-12-20T10:37:19;30.40;29.04;32.68;;
45964;Laerm;31671;48.092;11.842;2022-12-20T10:39:46;30.41;29.03;32.24;;
45964;Laerm;31671;48.092;11.842;2022-12-20T10:42:22;30.59;29.19;34.17;;
45964;Laerm;31671;48.092;11.842;2022-12-20T10:44:48;30.33;29.08;32.28;;
45964;Laerm;31671;48.092;11.842;2022-12-20T10:47:22;30.39;28.95;31.98;;
45964;Laerm;31671;48.092;11.842;2022-12-20T10:49:48;30.38;29.00;33.58;;
45964;Laerm;31671;48.092;11.842;2022-12-20T10:52:14;30.34;28.91;32.24;;
45964;Laerm;31671;48.092;11.842;2022-12-20T10:54:41;30.55;28.95;33.38;;
45964;Laerm;31671;48.092;11.842;2022-12-20T10:57:28;30.29;28.90;31.66;;
45964;Laerm;31671;48.092;11.842;2022-12-20T10:59:58;30.40;29.05;34.86;;
45964;Laerm;31671;48.092;11.842;2022-12-20T11:04:57;30.32;29.03;32.71;;
45964;Laerm;31671;48.092;11.842;2022-12-20T11:07:25;32.11;28.90;48.19;;
45964;Laerm;31671;48.092;11.842;2022-12-20T11:09:54;30.86;29.14;38.83;;
45964;Laerm;31671;48.092;11.842;2022-12-20T11:12:20;30.41;28.90;40.80;;
45964;Laerm;31671;48.092;11.842;2022-12-20T11:14:46;30.60;29.00;37.02;;
45964;Laerm;31671;48.092;11.842;2022-12-20T11:20:01;30.72;28.95;34.93;;
45964;Laerm;31671;48.092;11.842;2022-12-20T11:22:38;32.23;28.78;48.16;;
45964;Laerm;31671;48.092;11.842;2022-12-20T11:28:17;31.91;29.10;47.18;;
45964;Laerm;31671;48.092;11.842;2022-12-20T11:33:19;30.46;29.13;36.31;;
45964;Laerm;31671;48.092;11.842;2022-12-20T11:35:54;30.41;29.06;38.23;;
45964;Laerm;31671;48.092;11.842;2022-12-20T11:38:26;30.62;29.03;36.44;;
45964;Laerm;31671;48.092;11.842;2022-12-20T11:41:01;30.51;28.94;38.32;;
45964;Laerm;31671;48.092;11.842;2022-12-20T11:46:27;31.40;29.33;41.08;;
45964;Laerm;31671;48.092;11.842;2022-12-20T11:54:11;30.42;28.82;34.29;;
45964;Laerm;31671;48.092;11.842;2022-12-20T11:56:40;30.37;29.09;31.77;;
45964;Laerm;31671;48.092;11.842;2022-12-20T12:01:51;30.38;29.10;34.01;;
45964;Laerm;31671;48.092;11.842;2022-12-20T12:04:26;30.59;29.14;35.35;;
45964;Laerm;31671;48.092;11.842;2022-12-20T12:07:02;30.53;29.20;33.73;;
45964;Laerm;31671;48.092;11.842;2022-12-20T12:14:30;31.89;29.18;52.77;;
45964;Laerm;31671;48.092;11.842;2022-12-20T12:17:04;30.99;29.12;47.97;;
45964;Laerm;31671;48.092;11.842;2022-12-20T12:19:32;31.49;29.13;44.24;;
45964;Laerm;31671;48.092;11.842;2022-12-20T12:22:01;36.29;29.19;58.32;;
45964;Laerm;31671;48.092;11.842;2022-12-20T12:24:32;41.99;29.17;69.96;;
45964;Laerm;31671;48.092;11.842;2022-12-20T12:26:59;30.66;29.09;42.64;;
45964;Laerm;31671;48.092;11.842;2022-12-20T12:29:25;32.73;28.79;51.89;;
45964;Laerm;31671;48.092;11.842;2022-12-20T12:39:54;35.90;29.02;57.18;;
45964;Laerm;31671;48.092;11.842;2022-12-20T12:44:54;34.03;28.92;54.81;;
45964;Laerm;31671;48.092;11.842;2022-12-20T12:47:43;34.19;28.97;55.67;;
45964;Laerm;31671;48.092;11.842;2022-12-20T12:50:08;38.40;29.03;60.98;;
45964;Laerm;31671;48.092;11.842;2022-12-20T12:52:45;43.14;29.02;65.98;;
45964;Laerm;31671;48.092;11.842;2022-12-20T12:55:33;45.10;28.82;68.69;;
45964;Laerm;31671;48.092;11.842;2022-12-20T12:58:04;36.56;28.93;62.01;;
45964;Laerm;31671;48.092;11.842;2022-12-20T13:00:47;33.71;28.84;56.51;;
45964;Laerm;31671;48.092;11.842;2022-12-20T13:03:14;41.81;29.15;63.15;;
45964;Laerm;31671;48.092;11.842;2022-12-20T13:05:39;36.14;29.14;57.54;;
45964;Laerm;31671;48.092;11.842;2022-12-20T13:08:13;35.46;29.15;52.87;;
45964;Laerm;31671;48.092;11.842;2022-12-20T13:13:12;44.44;28.95;66.16;;
45964;Laerm;31671;48.092;11.842;2022-12-20T13:20:33;34.22;28.70;50.04;;
45964;Laerm;31671;48.092;11.842;2022-12-20T13:25:35;43.34;29.48;63.09;;
45964;Laerm;31671;48.092;11.842;2022-12-20T13:30:46;36.44;29.18;57.60;;
45964;Laerm;31671;48.092;11.842;2022-12-20T13:33:58;39.32;29.10;62.37;;
45964;Laerm;31671;48.092;11.842;2022-12-20T13:38:35;38.36;29.30;58.53;;
45964;Laerm;31671;48.092;11.842;2022-12-20T13:41:01;34.76;29.18;54.77;;
45964;Laerm;31671;48.092;11.842;2022-12-20T13:43:35;37.08;28.84;55.75;;
45964;Laerm;31671;48.092;11.842;2022-12-20T13:51:03;32.03;28.79;47.26;;
45964;Laerm;31671;48.092;11.842;2022-12-20T13:53:29;37.47;28.82;57.61;;
45964;Laerm;31671;48.092;11.842;2022-12-20T13:55:55;43.60;29.02;61.66;;
45964;Laerm;31671;48.092;11.842;2022-12-20T13:58:23;38.33;29.00;60.91;;
45964;Laerm;31671;48.092;11.842;2022-12-20T14:00:49;36.53;28.44;57.71;;
45964;Laerm;31671;48.092;11.842;2022-12-20T14:03:23;44.92;29.17;66.52;;
45964;Laerm;31671;48.092;11.842;2022-12-20T14:05:51;44.49;29.32;62.90;;
45964;Laerm;31671;48.092;11.842;2022-12-20T14:08:20;47.75;28.97;67.92;;
45964;Laerm;31671;48.092;11.842;2022-12-20T14:10:47;49.57;29.17;69.71;;
45964;Laerm;31671;48.092;11.842;2022-12-20T14:13:20;49.01;29.42;65.72;;
45964;Laerm;31671;48.092;11.842;2022-12-20T14:15:46;45.28;29.23;64.20;;
45964;Laerm;31671;48.092;11.842;2022-12-20T14:18:15;52.63;29.37;71.74;;
45964;Laerm;31671;48.092;11.842;2022-12-20T14:20:41;47.23;29.26;64.26;;
45964;Laerm;31671;48.092;11.842;2022-12-20T14:23:11;52.06;29.20;71.25;;
45964;Laerm;31671;48.092;11.842;2022-12-20T14:28:04;48.68;29.20;69.88;;
45964;Laerm;31671;48.092;11.842;2022-12-20T14:30:40;54.34;29.15;71.24;;
45964;Laerm;31671;48.092;11.842;2022-12-20T14:33:20;50.01;29.33;69.73;;
45964;Laerm;31671;48.092;11.842;2022-12-20T14:35:49;52.30;29.46;71.28;;
45964;Laerm;31671;48.092;11.842;2022-12-20T14:38:22;51.84;29.46;72.29;;
45964;Laerm;31671;48.092;11.842;2022-12-20T14:40:48;49.20;29.39;68.62;;
45964;Laerm;31671;48.092;11.842;2022-12-20T14:43:14;51.67;29.47;70.53;;
45964;Laerm;31671;48.092;11.842;2022-12-20T14:45:40;48.54;28.76;67.73;;
45964;Laerm;31671;48.092;11.842;2022-12-20T14:48:05;48.38;29.15;65.96;;
45964;Laerm;31671;48.092;11.842;2022-12-20T14:50:37;46.07;29.16;68.00;;
45964;Laerm;31671;48.092;11.842;2022-12-20T14:53:04;47.85;29.58;66.59;;
45964;Laerm;31671;48.092;11.842;2022-12-20T14:55:38;55.05;29.10;74.02;;
45964;Laerm;31671;48.092;11.842;2022-12-20T14:58:22;54.81;29.06;74.65;;
45964;Laerm;31671;48.092;11.842;2022-12-20T15:01:01;56.44;29.28;75.55;;